sensor_id;sensor_type;location;lat;lon;timestamp;P1;durP1;ratioP1;P2;durP2;ratioP2
1682;SDS011;13252;53.596;10.060;2023-08-06T00:00:42;5.33;;;2.90;;
1682;SDS011;13252;53.596;10.060;2023-08-06T00:03:10;4.67;;;2.90;;
1682;SDS011;13252;53.596;10.060;2023-08-06T00:05:41;4.20;;;2.53;;
1682;SDS011;13252;53.596;10.060;2023-08-06T00:08:09;3.70;;;2.90;;
1682;SDS011;13252;53.596;10.060;2023-08-06T00:10:38;3.53;;;2.70;;
1682;SDS011;13252;53.596;10.060;2023-08-06T00:13:06;3.67;;;2.90;;
1682;SDS011;13252;53.596;10.060;2023-08-06T00:15:34;4.60;;;2.80;;
1682;SDS011;13252;53.596;10.060;2023-08-06T00:18:02;7.47;;;3.47;;
1682;SDS011;13252;53.596;10.060;2023-08-06T00:20:30;4.93;;;3.10;;
1682;SDS011;13252;53.596;10.060;2023-08-06T00:22:57;3.30;;;2.73;;
1682;SDS011;13252;53.596;10.060;2023-08-06T00:25:25;4.33;;;2.70;;
1682;SDS011;13252;53.596;10.060;2023-08-06T00:27:54;5.60;;;3.20;;
1682;SDS011;13252;53.596;10.060;2023-08-06T00:30:22;4.60;;;3.77;;
1682;SDS011;13252;53.596;10.060;2023-08-06T00:32:50;6.93;;;4.70;;
1682;SDS011;13252;53.596;10.060;2023-08-06T00:35:18;5.30;;;3.80;;
1682;SDS011;13252;53.596;10.060;2023-08-06T00:37:45;6.37;;;4.20;;
1682;SDS011;13252;53.596;10.060;2023-08-06T00:40:14;4.40;;;4.00;;
1682;SDS011;13252;53.596;10.060;2023-08-06T00:42:41;6.17;;;4.70;;
1682;SDS011;13252;53.596;10.060;2023-08-06T00:45:12;7.20;;;5.00;;
1682;SDS011;13252;53.596;10.060;2023-08-06T00:47:40;7.03;;;4.77;;
1682;SDS011;13252;53.596;10.060;2023-08-06T00:50:10;5.93;;;5.33;;
1682;SDS011;13252;53.596;10.060;2023-08-06T00:52:38;4.73;;;4.33;;
1682;SDS011;13252;53.596;10.060;2023-08-06T00:55:05;8.20;;;5.73;;
1682;SDS011;13252;53.596;10.060;2023-08-06T00:57:34;6.20;;;5.17;;
1682;SDS011;13252;53.596;10.060;2023-08-06T01:00:02;6.83;;;4.63;;
1682;SDS011;13252;53.596;10.060;2023-08-06T01:02:32;6.20;;;5.60;;
1682;SDS011;13252;53.596;10.060;2023-08-06T01:05:00;7.20;;;5.53;;
1682;SDS011;13252;53.596;10.060;2023-08-06T01:07:31;6.03;;;5.20;;
1682;SDS011;13252;53.596;10.060;2023-08-06T01:10:10;7.07;;;5.73;;
1682;SDS011;13252;53.596;10.060;2023-08-06T01:12:45;6.93;;;6.30;;
1682;SDS011;13252;53.596;10.060;2023-08-06T01:15:16;6.40;;;5.80;;
1682;SDS011;13252;53.596;10.060;2023-08-06T01:17:48;8.10;;;6.33;;
1682;SDS011;13252;53.596;10.060;2023-08-06T01:20:16;7.50;;;5.90;;
1682;SDS011;13252;53.596;10.060;2023-08-06T01:22:45;8.80;;;6.20;;
1682;SDS011;13252;53.596;10.060;2023-08-06T01:25:13;6.40;;;5.80;;
1682;SDS011;13252;53.596;10.060;2023-08-06T01:27:44;6.20;;;5.60;;
1682;SDS011;13252;53.596;10.060;2023-08-06T01:30:15;6.20;;;5.60;;
1682;SDS011;13252;53.596;10.060;2023-08-06T01:32:45;6.93;;;6.23;;
1682;SDS011;13252;53.596;10.060;2023-08-06T01:35:15;12.10;;;7.00;;
1682;SDS011;13252;53.596;10.060;2023-08-06T01:37:44;8.63;;;6.40;;
1682;SDS011;13252;53.596;10.060;2023-08-06T01:40:13;8.20;;;6.60;;
1682;SDS011;13252;53.596;10.060;2023-08-06T01:42:41;6.40;;;5.63;;
1682;SDS011;13252;53.596;10.060;2023-08-06T01:45:09;9.13;;;6.23;;
1682;SDS011;13252;53.596;10.060;2023-08-06T01:47:37;13.60;;;6.60;;
1682;SDS011;13252;53.596;10.060;2023-08-06T01:50:05;6.70;;;6.00;;
1682;SDS011;13252;53.596;10.060;2023-08-06T01:52:33;14.07;;;6.07;;
1682;SDS011;13252;53.596;10.060;2023-08-06T01:55:02;6.23;;;5.63;;
1682;SDS011;13252;53.596;10.060;2023-08-06T01:57:30;6.90;;;5.67;;
1682;SDS011;13252;53.596;10.060;2023-08-06T01:59:58;10.47;;;6.50;;
1682;SDS011;13252;53.596;10.060;2023-08-06T02:02:26;10.10;;;5.70;;
1682;SDS011;13252;53.596;10.060;2023-08-06T02:04:53;7.20;;;5.97;;
1682;SDS011;13252;53.596;10.060;2023-08-06T02:07:21;7.90;;;6.10;;
1682;SDS011;13252;53.596;10.060;2023-08-06T02:09:49;10.67;;;6.90;;
1682;SDS011;13252;53.596;10.060;2023-08-06T02:12:18;6.67;;;6.07;;
1682;SDS011;13252;53.596;10.060;2023-08-06T02:14:45;10.30;;;6.70;;
1682;SDS011;13252;53.596;10.060;2023-08-06T02:17:13;6.77;;;6.17;;
1682;SDS011;13252;53.596;10.060;2023-08-06T02:19:41;7.20;;;6.10;;
1682;SDS011;13252;53.596;10.060;2023-08-06T02:22:09;9.20;;;6.07;;
1682;SDS011;13252;53.596;10.060;2023-08-06T02:24:37;7.10;;;6.40;;
1682;SDS011;13252;53.596;10.060;2023-08-06T02:27:04;8.07;;;6.47;;
1682;SDS011;13252;53.596;10.060;2023-08-06T02:29:34;6.57;;;5.77;;
1682;SDS011;13252;53.596;10.060;2023-08-06T02:32:03;7.77;;;6.97;;
1682;SDS011;13252;53.596;10.060;2023-08-06T02:34:32;10.90;;;6.17;;
1682;SDS011;13252;53.596;10.060;2023-08-06T02:36:59;6.77;;;6.10;;
1682;SDS011;13252;53.596;10.060;2023-08-06T02:39:27;8.40;;;6.50;;
1682;SDS011;13252;53.596;10.060;2023-08-06T02:41:57;9.27;;;6.57;;
1682;SDS011;13252;53.596;10.060;2023-08-06T02:44:26;6.93;;;6.33;;
1682;SDS011;13252;53.596;10.060;2023-08-06T02:46:56;7.27;;;6.50;;
1682;SDS011;13252;53.596;10.060;2023-08-06T02:49:23;9.50;;;6.53;;
1682;SDS011;13252;53.596;10.060;2023-08-06T02:51:51;7.57;;;5.93;;
1682;SDS011;13252;53.596;10.060;2023-08-06T02:54:19;8.10;;;6.13;;
1682;SDS011;13252;53.596;10.060;2023-08-06T02:56:47;9.70;;;6.67;;
1682;SDS011;13252;53.596;10.060;2023-08-06T02:59:22;6.90;;;6.20;;
1682;SDS011;13252;53.596;10.060;2023-08-06T03:02:00;7.13;;;5.80;;
1682;SDS011;13252;53.596;10.060;2023-08-06T03:04:38;7.40;;;5.77;;
1682;SDS011;13252;53.596;10.060;2023-08-06T03:07:07;13.57;;;8.10;;
1682;SDS011;13252;53.596;10.060;2023-08-06T03:09:44;11.90;;;7.73;;
1682;SDS011;13252;53.596;10.060;2023-08-06T03:12:12;10.90;;;5.83;;
1682;SDS011;13252;53.596;10.060;2023-08-06T03:14:40;7.50;;;6.77;;
1682;SDS011;13252;53.596;10.060;2023-08-06T03:17:10;10.70;;;6.50;;
1682;SDS011;13252;53.596;10.060;2023-08-06T03:19:38;8.43;;;6.53;;
1682;SDS011;13252;53.596;10.060;2023-08-06T03:22:06;7.23;;;6.53;;
1682;SDS011;13252;53.596;10.060;2023-08-06T03:24:35;7.93;;;6.43;;
1682;SDS011;13252;53.596;10.060;2023-08-06T03:27:03;8.20;;;7.00;;
1682;SDS011;13252;53.596;10.060;2023-08-06T03:29:31;9.33;;;6.70;;
1682;SDS011;13252;53.596;10.060;2023-08-06T03:32:00;9.40;;;6.50;;
1682;SDS011;13252;53.596;10.060;2023-08-06T03:34:29;7.40;;;6.03;;
1682;SDS011;13252;53.596;10.060;2023-08-06T03:36:57;10.57;;;7.10;;
1682;SDS011;13252;53.596;10.060;2023-08-06T03:39:26;6.63;;;5.93;;
1682;SDS011;13252;53.596;10.060;2023-08-06T03:41:54;8.60;;;7.10;;
1682;SDS011;13252;53.596;10.060;2023-08-06T03:44:22;8.20;;;6.83;;
1682;SDS011;13252;53.596;10.060;2023-08-06T03:46:50;7.00;;;6.30;;
1682;SDS011;13252;53.596;10.060;2023-08-06T03:49:18;8.77;;;6.60;;
1682;SDS011;13252;53.596;10.060;2023-08-06T03:51:47;7.60;;;6.80;;
1682;SDS011;13252;53.596;10.060;2023-08-06T03:54:15;16.93;;;7.60;;
1682;SDS011;13252;53.596;10.060;2023-08-06T03:56:42;7.37;;;6.63;;
1682;SDS011;13252;53.596;10.060;2023-08-06T03:59:10;9.67;;;6.30;;
1682;SDS011;13252;53.596;10.060;2023-08-06T04:01:38;8.73;;;6.10;;
1682;SDS011;13252;53.596;10.060;2023-08-06T04:04:06;6.40;;;5.80;;
1682;SDS011;13252;53.596;10.060;2023-08-06T04:06:34;11.43;;;6.40;;
1682;SDS011;13252;53.596;10.060;2023-08-06T04:09:03;9.10;;;6.23;;
1682;SDS011;13252;53.596;10.060;2023-08-06T04:11:30;8.90;;;6.80;;
1682;SDS011;13252;53.596;10.060;2023-08-06T04:13:58;7.30;;;6.57;;
1682;SDS011;13252;53.596;10.060;2023-08-06T04:16:26;9.50;;;6.90;;
1682;SDS011;13252;53.596;10.060;2023-08-06T04:18:53;7.20;;;5.83;;
1682;SDS011;13252;53.596;10.060;2023-08-06T04:21:21;14.63;;;6.73;;
1682;SDS011;13252;53.596;10.060;2023-08-06T04:23:49;8.00;;;6.20;;
1682;SDS011;13252;53.596;10.060;2023-08-06T04:26:19;8.40;;;6.47;;
1682;SDS011;13252;53.596;10.060;2023-08-06T04:28:47;8.40;;;5.70;;
1682;SDS011;13252;53.596;10.060;2023-08-06T04:31:15;8.47;;;6.70;;
1682;SDS011;13252;53.596;10.060;2023-08-06T04:33:43;11.70;;;6.57;;
1682;SDS011;13252;53.596;10.060;2023-08-06T04:36:13;9.50;;;5.50;;
1682;SDS011;13252;53.596;10.060;2023-08-06T04:38:41;10.17;;;6.20;;
1682;SDS011;13252;53.596;10.060;2023-08-06T04:41:13;7.13;;;6.23;;
1682;SDS011;13252;53.596;10.060;2023-08-06T04:43:42;8.10;;;6.17;;
1682;SDS011;13252;53.596;10.060;2023-08-06T04:46:10;10.90;;;6.03;;
1682;SDS011;13252;53.596;10.060;2023-08-06T04:48:38;8.93;;;6.10;;
1682;SDS011;13252;53.596;10.060;2023-08-06T04:51:06;13.37;;;6.80;;
1682;SDS011;13252;53.596;10.060;2023-08-06T04:53:33;12.43;;;6.73;;
1682;SDS011;13252;53.596;10.060;2023-08-06T04:56:01;8.13;;;6.20;;
1682;SDS011;13252;53.596;10.060;2023-08-06T04:58:28;8.07;;;6.50;;
1682;SDS011;13252;53.596;10.060;2023-08-06T05:00:57;10.70;;;6.50;;
1682;SDS011;13252;53.596;10.060;2023-08-06T05:03:25;14.97;;;8.50;;
1682;SDS011;13252;53.596;10.060;2023-08-06T05:05:53;7.90;;;5.83;;
1682;SDS011;13252;53.596;10.060;2023-08-06T05:08:20;13.47;;;7.30;;
1682;SDS011;13252;53.596;10.060;2023-08-06T05:10:48;8.77;;;7.37;;
1682;SDS011;13252;53.596;10.060;2023-08-06T05:13:15;13.83;;;7.77;;
1682;SDS011;13252;53.596;10.060;2023-08-06T05:15:43;11.30;;;7.60;;
1682;SDS011;13252;53.596;10.060;2023-08-06T05:18:13;10.53;;;7.40;;
1682;SDS011;13252;53.596;10.060;2023-08-06T05:20:41;14.37;;;7.40;;
1682;SDS011;13252;53.596;10.060;2023-08-06T05:23:10;18.00;;;11.80;;
1682;SDS011;13252;53.596;10.060;2023-08-06T05:25:37;17.50;;;7.60;;
1682;SDS011;13252;53.596;10.060;2023-08-06T05:28:05;16.30;;;8.57;;
1682;SDS011;13252;53.596;10.060;2023-08-06T05:30:33;11.30;;;7.30;;
1682;SDS011;13252;53.596;10.060;2023-08-06T05:33:03;10.33;;;8.10;;
1682;SDS011;13252;53.596;10.060;2023-08-06T05:35:32;7.87;;;7.07;;
1682;SDS011;13252;53.596;10.060;2023-08-06T05:37:59;9.67;;;7.60;;
1682;SDS011;13252;53.596;10.060;2023-08-06T05:40:27;9.13;;;6.93;;
1682;SDS011;13252;53.596;10.060;2023-08-06T05:42:55;9.70;;;8.07;;
1682;SDS011;13252;53.596;10.060;2023-08-06T05:45:22;9.00;;;7.17;;
1682;SDS011;13252;53.596;10.060;2023-08-06T05:47:50;12.10;;;8.00;;
1682;SDS011;13252;53.596;10.060;2023-08-06T05:50:20;7.87;;;7.07;;
1682;SDS011;13252;53.596;10.060;2023-08-06T05:52:49;15.23;;;8.47;;
1682;SDS011;13252;53.596;10.060;2023-08-06T05:55:16;11.67;;;7.10;;
1682;SDS011;13252;53.596;10.060;2023-08-06T05:57:44;8.87;;;7.97;;
1682;SDS011;13252;53.596;10.060;2023-08-06T06:00:12;10.97;;;7.20;;
1682;SDS011;13252;53.596;10.060;2023-08-06T06:02:39;9.13;;;7.20;;
1682;SDS011;13252;53.596;10.060;2023-08-06T06:05:07;9.17;;;7.87;;
1682;SDS011;13252;53.596;10.060;2023-08-06T06:07:35;15.57;;;7.60;;
1682;SDS011;13252;53.596;10.060;2023-08-06T06:10:05;12.83;;;8.10;;
1682;SDS011;13252;53.596;10.060;2023-08-06T06:12:33;31.83;;;26.70;;
1682;SDS011;13252;53.596;10.060;2023-08-06T06:15:01;15.27;;;11.63;;
1682;SDS011;13252;53.596;10.060;2023-08-06T06:17:29;36.70;;;29.90;;
1682;SDS011;13252;53.596;10.060;2023-08-06T06:19:57;20.33;;;8.90;;
1682;SDS011;13252;53.596;10.060;2023-08-06T06:22:25;10.50;;;8.97;;
1682;SDS011;13252;53.596;10.060;2023-08-06T06:24:52;14.97;;;7.80;;
1682;SDS011;13252;53.596;10.060;2023-08-06T06:27:21;13.50;;;8.23;;
1682;SDS011;13252;53.596;10.060;2023-08-06T06:29:49;15.87;;;8.50;;
1682;SDS011;13252;53.596;10.060;2023-08-06T06:32:17;9.13;;;8.23;;
1682;SDS011;13252;53.596;10.060;2023-08-06T06:34:45;10.73;;;8.63;;
1682;SDS011;13252;53.596;10.060;2023-08-06T06:37:12;11.50;;;8.50;;
1682;SDS011;13252;53.596;10.060;2023-08-06T06:39:40;8.70;;;6.90;;
1682;SDS011;13252;53.596;10.060;2023-08-06T06:42:08;9.50;;;7.70;;
1682;SDS011;13252;53.596;10.060;2023-08-06T06:44:43;14.10;;;7.67;;
1682;SDS011;13252;53.596;10.060;2023-08-06T06:47:11;14.37;;;8.80;;
1682;SDS011;13252;53.596;10.060;2023-08-06T06:49:38;9.67;;;8.07;;
1682;SDS011;13252;53.596;10.060;2023-08-06T06:52:06;12.07;;;7.70;;
1682;SDS011;13252;53.596;10.060;2023-08-06T06:54:34;11.37;;;7.80;;
1682;SDS011;13252;53.596;10.060;2023-08-06T06:57:01;10.53;;;8.03;;
1682;SDS011;13252;53.596;10.060;2023-08-06T06:59:29;12.20;;;8.43;;
1682;SDS011;13252;53.596;10.060;2023-08-06T07:01:58;9.50;;;8.50;;
1682;SDS011;13252;53.596;10.060;2023-08-06T07:04:26;12.80;;;8.40;;
1682;SDS011;13252;53.596;10.060;2023-08-06T07:06:53;9.87;;;7.23;;
1682;SDS011;13252;53.596;10.060;2023-08-06T07:09:21;9.13;;;7.60;;
1682;SDS011;13252;53.596;10.060;2023-08-06T07:11:48;9.60;;;7.40;;
1682;SDS011;13252;53.596;10.060;2023-08-06T07:14:16;9.30;;;6.97;;
1682;SDS011;13252;53.596;10.060;2023-08-06T07:16:44;9.60;;;6.43;;
1682;SDS011;13252;53.596;10.060;2023-08-06T07:19:13;10.30;;;7.67;;
1682;SDS011;13252;53.596;10.060;2023-08-06T07:21:41;10.50;;;8.13;;
1682;SDS011;13252;53.596;10.060;2023-08-06T07:24:08;14.10;;;7.87;;
1682;SDS011;13252;53.596;10.060;2023-08-06T07:26:36;14.23;;;8.30;;
1682;SDS011;13252;53.596;10.060;2023-08-06T07:29:03;12.90;;;7.43;;
1682;SDS011;13252;53.596;10.060;2023-08-06T07:31:31;9.17;;;7.20;;
1682;SDS011;13252;53.596;10.060;2023-08-06T07:33:59;11.33;;;8.67;;
1682;SDS011;13252;53.596;10.060;2023-08-06T07:36:28;10.87;;;8.53;;
1682;SDS011;13252;53.596;10.060;2023-08-06T07:38:55;18.93;;;8.57;;
1682;SDS011;13252;53.596;10.060;2023-08-06T07:41:24;14.30;;;7.93;;
1682;SDS011;13252;53.596;10.060;2023-08-06T07:43:51;8.90;;;8.03;;
1682;SDS011;13252;53.596;10.060;2023-08-06T07:46:19;12.53;;;9.03;;
1682;SDS011;13252;53.596;10.060;2023-08-06T07:48:46;11.40;;;8.20;;
1682;SDS011;13252;53.596;10.060;2023-08-06T07:51:14;8.80;;;7.90;;
1682;SDS011;13252;53.596;10.060;2023-08-06T07:53:43;13.90;;;8.10;;
1682;SDS011;13252;53.596;10.060;2023-08-06T07:56:10;11.80;;;7.50;;
1682;SDS011;13252;53.596;10.060;2023-08-06T07:58:38;10.90;;;7.77;;
1682;SDS011;13252;53.596;10.060;2023-08-06T08:01:06;14.40;;;7.53;;
1682;SDS011;13252;53.596;10.060;2023-08-06T08:03:33;11.33;;;7.97;;
1682;SDS011;13252;53.596;10.060;2023-08-06T08:06:01;16.60;;;8.20;;
1682;SDS011;13252;53.596;10.060;2023-08-06T08:08:29;10.50;;;7.70;;
1682;SDS011;13252;53.596;10.060;2023-08-06T08:10:58;23.63;;;9.73;;
1682;SDS011;13252;53.596;10.060;2023-08-06T08:13:27;11.57;;;7.87;;
1682;SDS011;13252;53.596;10.060;2023-08-06T08:15:56;12.57;;;8.67;;
1682;SDS011;13252;53.596;10.060;2023-08-06T08:18:25;8.80;;;7.40;;
1682;SDS011;13252;53.596;10.060;2023-08-06T08:20:52;11.97;;;7.90;;
1682;SDS011;13252;53.596;10.060;2023-08-06T08:23:20;16.13;;;9.10;;
1682;SDS011;13252;53.596;10.060;2023-08-06T08:25:48;11.13;;;8.00;;
1682;SDS011;13252;53.596;10.060;2023-08-06T08:28:17;8.47;;;7.47;;
1682;SDS011;13252;53.596;10.060;2023-08-06T08:30:44;10.10;;;8.40;;
1682;SDS011;13252;53.596;10.060;2023-08-06T08:33:12;12.90;;;7.83;;
1682;SDS011;13252;53.596;10.060;2023-08-06T08:35:40;16.70;;;9.33;;
1682;SDS011;13252;53.596;10.060;2023-08-06T08:38:08;10.83;;;8.17;;
1682;SDS011;13252;53.596;10.060;2023-08-06T08:40:36;10.63;;;8.10;;
1682;SDS011;13252;53.596;10.060;2023-08-06T08:43:06;9.17;;;7.50;;
1682;SDS011;13252;53.596;10.060;2023-08-06T08:45:35;11.60;;;7.83;;
1682;SDS011;13252;53.596;10.060;2023-08-06T08:48:06;18.13;;;10.60;;
1682;SDS011;13252;53.596;10.060;2023-08-06T08:50:34;12.83;;;8.47;;
1682;SDS011;13252;53.596;10.060;2023-08-06T08:53:02;15.87;;;8.80;;
1682;SDS011;13252;53.596;10.060;2023-08-06T08:55:30;9.93;;;8.80;;
1682;SDS011;13252;53.596;10.060;2023-08-06T08:57:58;14.17;;;8.97;;
1682;SDS011;13252;53.596;10.060;2023-08-06T09:00:26;10.20;;;8.10;;
1682;SDS011;13252;53.596;10.060;2023-08-06T09:02:56;10.43;;;8.43;;
1682;SDS011;13252;53.596;10.060;2023-08-06T09:05:25;15.90;;;9.47;;
1682;SDS011;13252;53.596;10.060;2023-08-06T09:07:54;11.73;;;9.63;;
1682;SDS011;13252;53.596;10.060;2023-08-06T09:10:22;9.77;;;8.80;;
1682;SDS011;13252;53.596;10.060;2023-08-06T09:12:51;17.47;;;8.27;;
1682;SDS011;13252;53.596;10.060;2023-08-06T09:15:20;9.43;;;8.20;;
1682;SDS011;13252;53.596;10.060;2023-08-06T09:17:51;13.53;;;8.60;;
1682;SDS011;13252;53.596;10.060;2023-08-06T09:20:20;10.77;;;9.00;;
1682;SDS011;13252;53.596;10.060;2023-08-06T09:22:48;10.30;;;8.27;;
1682;SDS011;13252;53.596;10.060;2023-08-06T09:25:20;9.47;;;8.47;;
1682;SDS011;13252;53.596;10.060;2023-08-06T09:27:50;18.03;;;8.63;;
1682;SDS011;13252;53.596;10.060;2023-08-06T09:30:28;13.40;;;9.90;;
1682;SDS011;13252;53.596;10.060;2023-08-06T09:32:57;13.07;;;8.13;;
1682;SDS011;13252;53.596;10.060;2023-08-06T09:35:27;10.37;;;8.17;;
1682;SDS011;13252;53.596;10.060;2023-08-06T09:37:55;11.77;;;8.90;;
1682;SDS011;13252;53.596;10.060;2023-08-06T09:40:27;12.63;;;9.43;;
1682;SDS011;13252;53.596;10.060;2023-08-06T09:42:55;12.20;;;9.30;;
1682;SDS011;13252;53.596;10.060;2023-08-06T09:45:23;11.40;;;9.50;;
1682;SDS011;13252;53.596;10.060;2023-08-06T09:47:56;14.03;;;10.80;;
1682;SDS011;13252;53.596;10.060;2023-08-06T09:50:27;13.57;;;9.93;;
1682;SDS011;13252;53.596;10.060;2023-08-06T09:52:57;12.87;;;9.07;;
1682;SDS011;13252;53.596;10.060;2023-08-06T09:55:26;15.03;;;9.60;;
1682;SDS011;13252;53.596;10.060;2023-08-06T09:57:54;12.90;;;9.90;;
1682;SDS011;13252;53.596;10.060;2023-08-06T10:00:22;13.77;;;10.00;;
1682;SDS011;13252;53.596;10.060;2023-08-06T10:02:49;14.40;;;10.10;;
1682;SDS011;13252;53.596;10.060;2023-08-06T10:05:21;12.27;;;10.73;;
1682;SDS011;13252;53.596;10.060;2023-08-06T10:07:51;10.60;;;9.50;;
1682;SDS011;13252;53.596;10.060;2023-08-06T10:10:19;15.20;;;11.20;;
1682;SDS011;13252;53.596;10.060;2023-08-06T10:12:48;15.30;;;10.80;;
1682;SDS011;13252;53.596;10.060;2023-08-06T10:15:19;17.23;;;11.60;;
1682;SDS011;13252;53.596;10.060;2023-08-06T10:17:49;17.97;;;12.00;;
1682;SDS011;13252;53.596;10.060;2023-08-06T10:20:18;16.63;;;11.83;;
1682;SDS011;13252;53.596;10.060;2023-08-06T10:22:50;13.60;;;12.20;;
1682;SDS011;13252;53.596;10.060;2023-08-06T10:25:29;16.40;;;12.10;;
1682;SDS011;13252;53.596;10.060;2023-08-06T10:27:58;17.63;;;11.73;;
1682;SDS011;13252;53.596;10.060;2023-08-06T10:30:26;14.63;;;12.30;;
1682;SDS011;13252;53.596;10.060;2023-08-06T10:32:55;14.67;;;13.23;;
1682;SDS011;13252;53.596;10.060;2023-08-06T10:35:29;15.07;;;12.97;;
1682;SDS011;13252;53.596;10.060;2023-08-06T10:38:00;13.37;;;11.97;;
1682;SDS011;13252;53.596;10.060;2023-08-06T10:40:30;15.17;;;12.20;;
1682;SDS011;13252;53.596;10.060;2023-08-06T10:42:59;16.00;;;12.93;;
1682;SDS011;13252;53.596;10.060;2023-08-06T10:45:28;14.33;;;12.83;;
1682;SDS011;13252;53.596;10.060;2023-08-06T10:47:57;16.03;;;11.90;;
1682;SDS011;13252;53.596;10.060;2023-08-06T10:50:24;14.77;;;12.30;;
1682;SDS011;13252;53.596;10.060;2023-08-06T10:52:52;12.80;;;11.50;;
1682;SDS011;13252;53.596;10.060;2023-08-06T10:55:25;13.30;;;11.90;;
1682;SDS011;13252;53.596;10.060;2023-08-06T10:57:53;11.93;;;10.93;;
1682;SDS011;13252;53.596;10.060;2023-08-06T11:00:21;12.40;;;10.80;;
1682;SDS011;13252;53.596;10.060;2023-08-06T11:02:50;11.93;;;10.80;;
1682;SDS011;13252;53.596;10.060;2023-08-06T11:05:19;13.93;;;11.43;;
1682;SDS011;13252;53.596;10.060;2023-08-06T11:07:46;12.10;;;10.90;;
1682;SDS011;13252;53.596;10.060;2023-08-06T11:10:15;14.77;;;10.50;;
1682;SDS011;13252;53.596;10.060;2023-08-06T11:12:45;11.40;;;10.07;;
1682;SDS011;13252;53.596;10.060;2023-08-06T11:15:12;13.70;;;10.43;;
1682;SDS011;13252;53.596;10.060;2023-08-06T11:17:40;11.03;;;9.93;;
1682;SDS011;13252;53.596;10.060;2023-08-06T11:20:09;10.47;;;9.47;;
1682;SDS011;13252;53.596;10.060;2023-08-06T11:22:38;13.57;;;11.13;;
1682;SDS011;13252;53.596;10.060;2023-08-06T11:25:06;10.50;;;9.50;;
1682;SDS011;13252;53.596;10.060;2023-08-06T11:27:34;11.83;;;9.73;;
1682;SDS011;13252;53.596;10.060;2023-08-06T11:30:03;9.53;;;8.50;;
1682;SDS011;13252;53.596;10.060;2023-08-06T11:32:32;12.07;;;9.43;;
1682;SDS011;13252;53.596;10.060;2023-08-06T11:35:09;11.33;;;9.50;;
1682;SDS011;13252;53.596;10.060;2023-08-06T11:37:37;10.67;;;9.57;;
1682;SDS011;13252;53.596;10.060;2023-08-06T11:40:06;10.30;;;9.30;;
1682;SDS011;13252;53.596;10.060;2023-08-06T11:42:37;11.63;;;9.03;;
1682;SDS011;13252;53.596;10.060;2023-08-06T11:45:06;10.50;;;9.60;;
1682;SDS011;13252;53.596;10.060;2023-08-06T11:47:37;12.33;;;9.43;;
1682;SDS011;13252;53.596;10.060;2023-08-06T11:50:06;10.30;;;8.20;;
1682;SDS011;13252;53.596;10.060;2023-08-06T11:52:34;12.57;;;9.43;;
1682;SDS011;13252;53.596;10.060;2023-08-06T11:55:02;13.43;;;9.17;;
1682;SDS011;13252;53.596;10.060;2023-08-06T11:57:32;11.20;;;9.50;;
1682;SDS011;13252;53.596;10.060;2023-08-06T12:00:02;9.40;;;8.40;;
1682;SDS011;13252;53.596;10.060;2023-08-06T12:02:39;11.27;;;10.03;;
1682;SDS011;13252;53.596;10.060;2023-08-06T12:05:11;11.77;;;9.10;;
1682;SDS011;13252;53.596;10.060;2023-08-06T12:07:40;11.80;;;10.50;;
1682;SDS011;13252;53.596;10.060;2023-08-06T12:10:08;10.70;;;8.77;;
1682;SDS011;13252;53.596;10.060;2023-08-06T12:12:36;12.37;;;9.30;;
1682;SDS011;13252;53.596;10.060;2023-08-06T12:15:05;16.23;;;8.90;;
1682;SDS011;13252;53.596;10.060;2023-08-06T12:17:33;11.03;;;9.27;;
1682;SDS011;13252;53.596;10.060;2023-08-06T12:20:03;9.97;;;8.57;;
1682;SDS011;13252;53.596;10.060;2023-08-06T12:22:32;10.17;;;8.67;;
1682;SDS011;13252;53.596;10.060;2023-08-06T12:25:01;10.57;;;8.60;;
1682;SDS011;13252;53.596;10.060;2023-08-06T12:27:29;9.60;;;8.70;;
1682;SDS011;13252;53.596;10.060;2023-08-06T12:29:57;9.10;;;8.10;;
1682;SDS011;13252;53.596;10.060;2023-08-06T12:32:25;8.47;;;7.53;;
1682;SDS011;13252;53.596;10.060;2023-08-06T12:34:52;11.87;;;7.93;;
1682;SDS011;13252;53.596;10.060;2023-08-06T12:37:21;12.50;;;8.00;;
1682;SDS011;13252;53.596;10.060;2023-08-06T12:39:49;9.80;;;8.20;;
1682;SDS011;13252;53.596;10.060;2023-08-06T12:42:17;9.10;;;7.60;;
1682;SDS011;13252;53.596;10.060;2023-08-06T12:44:44;12.00;;;7.53;;
1682;SDS011;13252;53.596;10.060;2023-08-06T12:47:12;11.30;;;8.33;;
1682;SDS011;13252;53.596;10.060;2023-08-06T12:49:39;10.23;;;7.60;;
1682;SDS011;13252;53.596;10.060;2023-08-06T12:52:07;12.50;;;7.80;;
1682;SDS011;13252;53.596;10.060;2023-08-06T12:54:37;9.77;;;7.10;;
1682;SDS011;13252;53.596;10.060;2023-08-06T12:57:04;11.47;;;7.67;;
1682;SDS011;13252;53.596;10.060;2023-08-06T12:59:32;11.50;;;7.80;;
1682;SDS011;13252;53.596;10.060;2023-08-06T13:02:02;7.40;;;6.70;;
1682;SDS011;13252;53.596;10.060;2023-08-06T13:04:30;10.93;;;7.17;;
1682;SDS011;13252;53.596;10.060;2023-08-06T13:07:00;8.60;;;6.60;;
1682;SDS011;13252;53.596;10.060;2023-08-06T13:09:28;11.17;;;8.67;;
1682;SDS011;13252;53.596;10.060;2023-08-06T13:12:00;10.57;;;7.30;;
1682;SDS011;13252;53.596;10.060;2023-08-06T13:14:31;11.43;;;8.30;;
1682;SDS011;13252;53.596;10.060;2023-08-06T13:17:00;16.10;;;8.80;;
1682;SDS011;13252;53.596;10.060;2023-08-06T13:19:28;10.27;;;7.67;;
1682;SDS011;13252;53.596;10.060;2023-08-06T13:21:59;8.80;;;5.67;;
1682;SDS011;13252;53.596;10.060;2023-08-06T13:24:29;7.63;;;6.83;;
1682;SDS011;13252;53.596;10.060;2023-08-06T13:26:57;10.17;;;6.87;;
1682;SDS011;13252;53.596;10.060;2023-08-06T13:29:26;9.20;;;6.60;;
1682;SDS011;13252;53.596;10.060;2023-08-06T13:31:54;8.60;;;6.57;;
1682;SDS011;13252;53.596;10.060;2023-08-06T13:34:21;7.27;;;6.47;;
1682;SDS011;13252;53.596;10.060;2023-08-06T13:36:49;9.67;;;6.47;;
1682;SDS011;13252;53.596;10.060;2023-08-06T13:39:17;13.23;;;6.07;;
1682;SDS011;13252;53.596;10.060;2023-08-06T13:41:45;8.27;;;6.43;;
1682;SDS011;13252;53.596;10.060;2023-08-06T13:44:13;9.10;;;6.10;;
1682;SDS011;13252;53.596;10.060;2023-08-06T13:46:42;6.93;;;5.43;;
1682;SDS011;13252;53.596;10.060;2023-08-06T13:49:10;7.50;;;5.50;;
1682;SDS011;13252;53.596;10.060;2023-08-06T13:51:38;9.00;;;5.17;;
1682;SDS011;13252;53.596;10.060;2023-08-06T13:54:05;6.27;;;4.40;;
1682;SDS011;13252;53.596;10.060;2023-08-06T13:56:34;5.37;;;3.83;;
1682;SDS011;13252;53.596;10.060;2023-08-06T13:59:03;5.07;;;3.73;;
1682;SDS011;13252;53.596;10.060;2023-08-06T14:01:31;6.77;;;4.20;;
1682;SDS011;13252;53.596;10.060;2023-08-06T14:04:03;9.10;;;4.73;;
1682;SDS011;13252;53.596;10.060;2023-08-06T14:06:31;6.37;;;4.13;;
1682;SDS011;13252;53.596;10.060;2023-08-06T14:08:58;6.23;;;4.03;;
1682;SDS011;13252;53.596;10.060;2023-08-06T14:11:26;5.27;;;3.67;;
1682;SDS011;13252;53.596;10.060;2023-08-06T14:13:54;6.03;;;3.37;;
1682;SDS011;13252;53.596;10.060;2023-08-06T14:16:21;6.27;;;3.17;;
1682;SDS011;13252;53.596;10.060;2023-08-06T14:18:49;4.63;;;3.37;;
1682;SDS011;13252;53.596;10.060;2023-08-06T14:21:18;11.20;;;3.77;;
1682;SDS011;13252;53.596;10.060;2023-08-06T14:23:46;5.90;;;3.77;;
1682;SDS011;13252;53.596;10.060;2023-08-06T14:26:13;7.20;;;4.10;;
1682;SDS011;13252;53.596;10.060;2023-08-06T14:28:41;5.50;;;3.47;;
1682;SDS011;13252;53.596;10.060;2023-08-06T14:31:09;3.47;;;2.80;;
1682;SDS011;13252;53.596;10.060;2023-08-06T14:33:36;6.50;;;3.17;;
1682;SDS011;13252;53.596;10.060;2023-08-06T14:36:04;5.50;;;3.20;;
1682;SDS011;13252;53.596;10.060;2023-08-06T14:38:33;4.37;;;2.90;;
1682;SDS011;13252;53.596;10.060;2023-08-06T14:41:15;8.63;;;2.90;;
1682;SDS011;13252;53.596;10.060;2023-08-06T14:43:43;5.00;;;3.07;;
1682;SDS011;13252;53.596;10.060;2023-08-06T14:46:10;7.90;;;3.60;;
1682;SDS011;13252;53.596;10.060;2023-08-06T14:48:38;6.43;;;2.87;;